sensor_id;sensor_type;location;lat;lon;timestamp;pressure;altitude;pressure_sealevel;temperature;humidity
29941;BME280;16801;53.562;10.038;2023-11-19T00:01:14;100856.28;;;5.58;100.00
29941;BME280;16801;53.562;10.038;2023-11-19T00:04:36;100850.06;;;5.57;100.00
29941;BME280;16801;53.562;10.038;2023-11-19T00:07:58;100846.53;;;5.57;100.00
29941;BME280;16801;53.562;10.038;2023-11-19T00:11:21;100839.78;;;5.51;100.00
29941;BME280;16801;53.562;10.038;2023-11-19T00:14:42;100824.91;;;5.47;100.00
29941;BME280;16801;53.562;10.038;2023-11-19T00:18:03;100807.41;;;5.56;100.00
29941;BME280;16801;53.562;10.038;2023-11-19T00:21:24;100795.53;;;5.60;100.00
29941;BME280;16801;53.562;10.038;2023-11-19T00:24:48;100794.97;;;5.55;100.00
29941;BME280;16801;53.562;10.038;2023-11-19T00:28:13;100791.16;;;5.59;100.00
29941;BME280;16801;53.562;10.038;2023-11-19T00:31:34;100792.97;;;5.71;100.00
29941;BME280;16801;53.562;10.038;2023-11-19T00:34:55;100777.34;;;5.65;100.00
29941;BME280;16801;53.562;10.038;2023-11-19T00:38:15;100756.03;;;5.63;100.00
29941;BME280;16801;53.562;10.038;2023-11-19T00:41:36;100742.69;;;5.63;100.00
29941;BME280;16801;53.562;10.038;2023-11-19T00:44:59;100749.13;;;5.48;100.00
29941;BME280;16801;53.562;10.038;2023-11-19T00:48:20;100726.13;;;5.58;100.00
29941;BME280;16801;53.562;10.038;2023-11-19T00:51:41;100725.47;;;5.55;100.00
29941;BME280;16801;53.562;10.038;2023-11-19T00:55:03;100725.56;;;5.66;100.00
29941;BME280;16801;53.562;10.038;2023-11-19T00:58:23;100729.22;;;5.65;100.00
29941;BME280;16801;53.562;10.038;2023-11-19T01:01:46;100703.66;;;5.61;100.00
29941;BME280;16801;53.562;10.038;2023-11-19T01:05:08;100706.97;;;5.52;100.00
29941;BME280;16801;53.562;10.038;2023-11-19T01:08:29;100672.72;;;5.57;100.00
29941;BME280;16801;53.562;10.038;2023-11-19T01:11:50;100668.16;;;5.59;100.00
29941;BME280;16801;53.562;10.038;2023-11-19T01:15:11;100672.97;;;5.54;100.00
29941;BME280;16801;53.562;10.038;2023-11-19T01:18:34;100656.50;;;5.60;100.00
29941;BME280;16801;53.562;10.038;2023-11-19T01:21:56;100637.91;;;5.58;100.00
29941;BME280;16801;53.562;10.038;2023-11-19T01:25:17;100636.47;;;5.65;100.00
29941;BME280;16801;53.562;10.038;2023-11-19T01:28:38;100622.44;;;5.75;100.00
29941;BME280;16801;53.562;10.038;2023-11-19T01:32:02;100622.78;;;5.70;100.00
29941;BME280;16801;53.562;10.038;2023-11-19T01:35:28;100616.97;;;5.76;100.00
29941;BME280;16801;53.562;10.038;2023-11-19T01:38:48;100616.34;;;5.73;100.00
29941;BME280;16801;53.562;10.038;2023-11-19T01:42:09;100590.69;;;5.70;100.00
29941;BME280;16801;53.562;10.038;2023-11-19T01:45:31;100590.47;;;5.86;100.00
29941;BME280;16801;53.562;10.038;2023-11-19T01:48:55;100584.13;;;5.74;100.00
29941;BME280;16801;53.562;10.038;2023-11-19T01:52:19;100577.09;;;5.73;100.00
29941;BME280;16801;53.562;10.038;2023-11-19T01:55:41;100573.09;;;5.79;100.00
29941;BME280;16801;53.562;10.038;2023-11-19T01:59:02;100569.16;;;5.72;100.00
29941;BME280;16801;53.562;10.038;2023-11-19T02:02:24;100561.59;;;5.65;100.00
29941;BME280;16801;53.562;10.038;2023-11-19T02:05:47;100546.41;;;5.66;100.00
29941;BME280;16801;53.562;10.038;2023-11-19T02:09:09;100545.00;;;5.73;100.00
29941;BME280;16801;53.562;10.038;2023-11-19T02:12:31;100550.56;;;5.70;100.00
29941;BME280;16801;53.562;10.038;2023-11-19T02:15:53;100529.06;;;5.72;100.00
29941;BME280;16801;53.562;10.038;2023-11-19T02:19:14;100526.16;;;5.75;100.00
29941;BME280;16801;53.562;10.038;2023-11-19T02:22:35;100527.88;;;5.76;100.00
29941;BME280;16801;53.562;10.038;2023-11-19T02:26:03;100515.06;;;5.68;100.00
29941;BME280;16801;53.562;10.038;2023-11-19T02:29:27;100501.25;;;5.74;100.00
29941;BME280;16801;53.562;10.038;2023-11-19T02:32:48;100492.25;;;5.75;100.00
29941;BME280;16801;53.562;10.038;2023-11-19T02:36:09;100476.09;;;5.77;100.00
29941;BME280;16801;53.562;10.038;2023-11-19T02:39:30;100476.63;;;5.82;100.00
29941;BME280;16801;53.562;10.038;2023-11-19T02:42:51;100453.97;;;5.75;100.00
29941;BME280;16801;53.562;10.038;2023-11-19T02:46:13;100456.28;;;5.79;100.00
29941;BME280;16801;53.562;10.038;2023-11-19T02:49:36;100446.22;;;5.83;100.00
29941;BME280;16801;53.562;10.038;2023-11-19T02:52:58;100431.91;;;5.84;100.00
29941;BME280;16801;53.562;10.038;2023-11-19T02:56:18;100429.69;;;5.78;100.00
29941;BME280;16801;53.562;10.038;2023-11-19T02:59:45;100423.88;;;5.84;100.00
29941;BME280;16801;53.562;10.038;2023-11-19T03:03:08;100410.78;;;5.92;100.00
29941;BME280;16801;53.562;10.038;2023-11-19T03:06:39;100406.63;;;5.99;100.00
29941;BME280;16801;53.562;10.038;2023-11-19T03:09:59;100400.34;;;6.11;100.00
29941;BME280;16801;53.562;10.038;2023-11-19T03:13:20;100396.34;;;6.16;100.00
29941;BME280;16801;53.562;10.038;2023-11-19T03:16:44;100388.31;;;6.16;100.00
29941;BME280;16801;53.562;10.038;2023-11-19T03:20:09;100398.16;;;6.05;100.00
29941;BME280;16801;53.562;10.038;2023-11-19T03:23:35;100374.44;;;6.00;100.00
29941;BME280;16801;53.562;10.038;2023-11-19T03:26:57;100364.13;;;6.07;100.00
29941;BME280;16801;53.562;10.038;2023-11-19T03:30:18;100344.41;;;6.08;100.00
29941;BME280;16801;53.562;10.038;2023-11-19T03:33:40;100344.03;;;6.12;100.00
29941;BME280;16801;53.562;10.038;2023-11-19T03:37:02;100339.28;;;6.16;100.00
29941;BME280;16801;53.562;10.038;2023-11-19T03:40:23;100332.47;;;6.23;100.00
29941;BME280;16801;53.562;10.038;2023-11-19T03:43:44;100337.56;;;6.26;100.00
29941;BME280;16801;53.562;10.038;2023-11-19T03:47:06;100334.06;;;6.25;100.00
29941;BME280;16801;53.562;10.038;2023-11-19T03:50:26;100328.81;;;6.24;100.00
29941;BME280;16801;53.562;10.038;2023-11-19T03:53:49;100326.16;;;6.24;100.00
29941;BME280;16801;53.562;10.038;2023-11-19T03:57:10;100327.13;;;6.23;100.00
29941;BME280;16801;53.562;10.038;2023-11-19T04:00:32;100314.84;;;6.20;100.00
29941;BME280;16801;53.562;10.038;2023-11-19T04:03:52;100311.22;;;6.21;100.00
29941;BME280;16801;53.562;10.038;2023-11-19T04:07:15;100311.22;;;6.21;100.00
29941;BME280;16801;53.562;10.038;2023-11-19T04:10:37;100313.50;;;6.26;100.00
29941;BME280;16801;53.562;10.038;2023-11-19T04:13:58;100312.66;;;6.25;100.00
29941;BME280;16801;53.562;10.038;2023-11-19T04:17:19;100293.56;;;6.19;100.00
29941;BME280;16801;53.562;10.038;2023-11-19T04:20:42;100280.66;;;6.24;100.00
29941;BME280;16801;53.562;10.038;2023-11-19T04:24:04;100289.53;;;6.24;100.00
29941;BME280;16801;53.562;10.038;2023-11-19T04:27:26;100282.22;;;6.26;100.00
29941;BME280;16801;53.562;10.038;2023-11-19T04:30:47;100281.38;;;6.37;100.00
29941;BME280;16801;53.562;10.038;2023-11-19T04:34:08;100276.38;;;6.32;100.00
29941;BME280;16801;53.562;10.038;2023-11-19T04:37:29;100266.03;;;6.28;100.00
29941;BME280;16801;53.562;10.038;2023-11-19T04:40:50;100275.88;;;6.38;100.00
29941;BME280;16801;53.562;10.038;2023-11-19T04:44:12;100273.69;;;6.43;100.00
29941;BME280;16801;53.562;10.038;2023-11-19T04:47:33;100264.44;;;6.47;100.00
29941;BME280;16801;53.562;10.038;2023-11-19T04:50:54;100253.25;;;6.42;100.00
29941;BME280;16801;53.562;10.038;2023-11-19T04:54:15;100262.97;;;6.55;100.00
29941;BME280;16801;53.562;10.038;2023-11-19T04:57:36;100257.72;;;6.53;100.00
29941;BME280;16801;53.562;10.038;2023-11-19T05:00:58;100256.13;;;6.62;100.00
29941;BME280;16801;53.562;10.038;2023-11-19T05:04:19;100258.06;;;6.60;100.00
29941;BME280;16801;53.562;10.038;2023-11-19T05:07:40;100253.06;;;6.66;100.00
29941;BME280;16801;53.562;10.038;2023-11-19T05:11:01;100243.28;;;6.76;100.00
29941;BME280;16801;53.562;10.038;2023-11-19T05:14:22;100245.00;;;6.77;100.00
29941;BME280;16801;53.562;10.038;2023-11-19T05:17:45;100232.56;;;6.76;100.00
29941;BME280;16801;53.562;10.038;2023-11-19T05:21:06;100234.63;;;6.84;100.00
29941;BME280;16801;53.562;10.038;2023-11-19T05:24:27;100224.34;;;6.89;100.00
29941;BME280;16801;53.562;10.038;2023-11-19T05:27:49;100216.94;;;6.92;100.00
29941;BME280;16801;53.562;10.038;2023-11-19T05:31:09;100224.06;;;7.03;100.00
29941;BME280;16801;53.562;10.038;2023-11-19T05:34:32;100212.94;;;7.07;100.00
29941;BME280;16801;53.562;10.038;2023-11-19T05:37:52;100218.75;;;7.12;100.00
29941;BME280;16801;53.562;10.038;2023-11-19T05:41:13;100217.03;;;7.11;100.00
29941;BME280;16801;53.562;10.038;2023-11-19T05:44:34;100214.38;;;7.11;100.00
29941;BME280;16801;53.562;10.038;2023-11-19T05:47:56;100218.97;;;7.20;100.00
29941;BME280;16801;53.562;10.038;2023-11-19T05:51:18;100210.00;;;7.31;100.00
29941;BME280;16801;53.562;10.038;2023-11-19T05:54:39;100199.59;;;7.38;100.00
29941;BME280;16801;53.562;10.038;2023-11-19T05:58:01;100203.50;;;7.54;100.00
29941;BME280;16801;53.562;10.038;2023-11-19T06:01:23;100208.66;;;7.76;100.00
29941;BME280;16801;53.562;10.038;2023-11-19T06:04:44;100211.91;;;8.10;100.00
29941;BME280;16801;53.562;10.038;2023-11-19T06:08:08;100200.28;;;8.49;100.00
29941;BME280;16801;53.562;10.038;2023-11-19T06:11:29;100206.97;;;8.83;100.00
29941;BME280;16801;53.562;10.038;2023-11-19T06:14:50;100198.00;;;9.31;100.00
29941;BME280;16801;53.562;10.038;2023-11-19T06:18:11;100197.47;;;9.64;100.00
29941;BME280;16801;53.562;10.038;2023-11-19T06:21:32;100198.75;;;9.70;100.00
29941;BME280;16801;53.562;10.038;2023-11-19T06:24:54;100204.16;;;9.97;100.00
29941;BME280;16801;53.562;10.038;2023-11-19T06:28:15;100211.47;;;10.04;100.00
29941;BME280;16801;53.562;10.038;2023-11-19T06:31:36;100212.63;;;10.02;100.00
29941;BME280;16801;53.562;10.038;2023-11-19T06:34:57;100199.50;;;10.43;100.00
29941;BME280;16801;53.562;10.038;2023-11-19T06:38:18;100209.22;;;10.54;100.00
29941;BME280;16801;53.562;10.038;2023-11-19T06:41:44;100206.00;;;10.51;100.00
29941;BME280;16801;53.562;10.038;2023-11-19T06:45:06;100199.75;;;10.50;100.00
29941;BME280;16801;53.562;10.038;2023-11-19T06:48:27;100197.91;;;10.51;100.00
29941;BME280;16801;53.562;10.038;2023-11-19T06:51:48;100200.94;;;10.65;100.00
29941;BME280;16801;53.562;10.038;2023-11-19T06:55:09;100208.13;;;10.74;100.00
29941;BME280;16801;53.562;10.038;2023-11-19T06:58:32;100194.00;;;10.80;100.00
29941;BME280;16801;53.562;10.038;2023-11-19T07:01:56;100201.78;;;10.83;100.00
29941;BME280;16801;53.562;10.038;2023-11-19T07:05:17;100222.66;;;10.81;100.00
29941;BME280;16801;53.562;10.038;2023-11-19T07:08:38;100215.31;;;10.91;100.00
29941;BME280;16801;53.562;10.038;2023-11-19T07:11:59;100214.63;;;10.89;100.00
29941;BME280;16801;53.562;10.038;2023-11-19T07:15:22;100220.03;;;10.89;100.00
29941;BME280;16801;53.562;10.038;2023-11-19T07:18:43;100212.69;;;10.99;100.00
29941;BME280;16801;53.562;10.038;2023-11-19T07:22:04;100212.41;;;11.02;100.00
29941;BME280;16801;53.562;10.038;2023-11-19T07:25:26;100212.81;;;11.07;100.00
29941;BME280;16801;53.562;10.038;2023-11-19T07:28:47;100234.16;;;11.01;100.00
29941;BME280;16801;53.562;10.038;2023-11-19T07:32:09;100215.25;;;11.01;100.00
29941;BME280;16801;53.562;10.038;2023-11-19T07:35:31;100221.81;;;10.98;100.00
29941;BME280;16801;53.562;10.038;2023-11-19T07:38:52;100223.59;;;10.90;100.00
29941;BME280;16801;53.562;10.038;2023-11-19T07:42:15;100224.91;;;10.86;100.00
29941;BME280;16801;53.562;10.038;2023-11-19T07:45:36;100231.84;;;10.88;100.00
29941;BME280;16801;53.562;10.038;2023-11-19T07:48:59;100236.44;;;10.96;100.00
29941;BME280;16801;53.562;10.038;2023-11-19T07:52:23;100229.22;;;10.96;100.00
29941;BME280;16801;53.562;10.038;2023-11-19T07:55:43;100233.00;;;11.03;100.00
29941;BME280;16801;53.562;10.038;2023-11-19T07:59:04;100241.63;;;11.07;100.00
29941;BME280;16801;53.562;10.038;2023-11-19T08:02:29;100247.63;;;11.01;100.00
29941;BME280;16801;53.562;10.038;2023-11-19T08:05:51;100244.31;;;11.07;100.00
29941;BME280;16801;53.562;10.038;2023-11-19T08:09:14;100255.78;;;11.09;100.00
29941;BME280;16801;53.562;10.038;2023-11-19T08:12:35;100251.78;;;11.13;100.00
29941;BME280;16801;53.562;10.038;2023-11-19T08:15:56;100257.56;;;11.18;100.00
29941;BME280;16801;53.562;10.038;2023-11-19T08:19:18;100257.69;;;11.16;100.00
29941;BME280;16801;53.562;10.038;2023-11-19T08:22:40;100256.72;;;11.17;100.00
29941;BME280;16801;53.562;10.038;2023-11-19T08:26:01;100258.56;;;11.17;100.00
29941;BME280;16801;53.562;10.038;2023-11-19T08:29:22;100259.25;;;11.19;100.00
29941;BME280;16801;53.562;10.038;2023-11-19T08:32:43;100265.34;;;11.21;100.00
29941;BME280;16801;53.562;10.038;2023-11-19T08:36:04;100266.25;;;11.30;100.00
29941;BME280;16801;53.562;10.038;2023-11-19T08:39:27;100268.50;;;11.34;100.00
29941;BME280;16801;53.562;10.038;2023-11-19T08:42:48;100280.75;;;11.28;100.00
29941;BME280;16801;53.562;10.038;2023-11-19T08:46:10;100268.56;;;11.24;100.00
29941;BME280;16801;53.562;10.038;2023-11-19T08:49:31;100276.88;;;11.31;100.00
29941;BME280;16801;53.562;10.038;2023-11-19T08:52:52;100273.72;;;11.36;100.00
29941;BME280;16801;53.562;10.038;2023-11-19T08:56:14;100274.34;;;11.30;100.00
29941;BME280;16801;53.562;10.038;2023-11-19T08:59:38;100270.63;;;11.31;100.00
29941;BME280;16801;53.562;10.038;2023-11-19T09:02:59;100286.53;;;11.34;100.00
29941;BME280;16801;53.562;10.038;2023-11-19T09:06:20;100287.56;;;11.33;100.00
29941;BME280;16801;53.562;10.038;2023-11-19T09:09:41;100296.25;;;11.44;100.00
29941;BME280;16801;53.562;10.038;2023-11-19T09:13:03;100295.09;;;11.47;100.00
29941;BME280;16801;53.562;10.038;2023-11-19T09:16:24;100295.66;;;11.58;100.00
29941;BME280;16801;53.562;10.038;2023-11-19T09:19:44;100296.22;;;11.62;100.00
29941;BME280;16801;53.562;10.038;2023-11-19T09:23:05;100296.22;;;11.62;100.00
29941;BME280;16801;53.562;10.038;2023-11-19T09:26:28;100306.56;;;11.66;100.00
29941;BME280;16801;53.562;10.038;2023-11-19T09:29:51;100306.44;;;11.68;100.00
29941;BME280;16801;53.562;10.038;2023-11-19T09:33:17;100301.84;;;11.68;100.00
29941;BME280;16801;53.562;10.038;2023-11-19T09:36:37;100308.03;;;11.78;100.00
29941;BME280;16801;53.562;10.038;2023-11-19T09:39:58;100306.91;;;12.48;100.00
29941;BME280;16801;53.562;10.038;2023-11-19T09:43:20;100308.84;;;12.64;100.00
29941;BME280;16801;53.562;10.038;2023-11-19T09:46:43;100300.88;;;12.62;100.00
29941;BME280;16801;53.562;10.038;2023-11-19T09:50:04;100293.84;;;12.10;100.00
29941;BME280;16801;53.562;10.038;2023-11-19T09:53:25;100299.50;;;12.25;100.00
29941;BME280;16801;53.562;10.038;2023-11-19T09:56:47;100297.59;;;12.09;100.00
29941;BME280;16801;53.562;10.038;2023-11-19T10:00:10;100281.81;;;12.30;100.00
29941;BME280;16801;53.562;10.038;2023-11-19T10:03:34;100298.88;;;12.72;100.00
29941;BME280;16801;53.562;10.038;2023-11-19T10:06:59;100297.69;;;12.75;100.00
29941;BME280;16801;53.562;10.038;2023-11-19T10:10:20;100298.69;;;11.98;100.00
29941;BME280;16801;53.562;10.038;2023-11-19T10:13:42;100301.44;;;12.07;100.00
29941;BME280;16801;53.562;10.038;2023-11-19T10:17:07;100305.34;;;12.12;100.00
29941;BME280;16801;53.562;10.038;2023-11-19T10:20:35;100295.91;;;11.82;100.00
29941;BME280;16801;53.562;10.038;2023-11-19T10:23:57;100296.16;;;11.71;100.00
29941;BME280;16801;53.562;10.038;2023-11-19T10:27:19;100297.91;;;11.63;100.00
29941;BME280;16801;53.562;10.038;2023-11-19T10:30:41;100300.22;;;11.58;100.00
29941;BME280;16801;53.562;10.038;2023-11-19T10:34:02;100307.16;;;11.60;100.00
29941;BME280;16801;53.562;10.038;2023-11-19T10:37:30;100304.63;;;11.59;100.00
29941;BME280;16801;53.562;10.038;2023-11-19T10:40:52;100313.03;;;11.56;100.00
29941;BME280;16801;53.562;10.038;2023-11-19T10:44:30;100308.25;;;11.50;100.00
29941;BME280;16801;53.562;10.038;2023-11-19T10:47:54;100315.66;;;11.48;100.00
29941;BME280;16801;53.562;10.038;2023-11-19T10:51:18;100307.31;;;11.41;100.00
29941;BME280;16801;53.562;10.038;2023-11-19T10:54:44;100305.63;;;11.58;100.00
29941;BME280;16801;53.562;10.038;2023-11-19T10:58:06;100307.44;;;11.92;100.00
29941;BME280;16801;53.562;10.038;2023-11-19T11:01:43;100311.19;;;11.99;100.00
29941;BME280;16801;53.562;10.038;2023-11-19T11:05:05;100309.53;;;11.81;100.00
29941;BME280;16801;53.562;10.038;2023-11-19T11:08:28;100310.44;;;11.89;100.00
29941;BME280;16801;53.562;10.038;2023-11-19T11:11:54;100311.56;;;11.79;100.00
29941;BME280;16801;53.562;10.038;2023-11-19T11:15:18;100322.00;;;11.74;100.00
29941;BME280;16801;53.562;10.038;2023-11-19T11:18:40;100309.94;;;11.68;100.00
29941;BME280;16801;53.562;10.038;2023-11-19T11:22:02;100309.34;;;11.57;100.00
29941;BME280;16801;53.562;10.038;2023-11-19T11:25:35;100319.13;;;11.58;100.00
29941;BME280;16801;53.562;10.038;2023-11-19T11:29:01;100306.63;;;11.57;100.00
29941;BME280;16801;53.562;10.038;2023-11-19T11:32:32;100321.06;;;11.65;100.00
29941;BME280;16801;53.562;10.038;2023-11-19T11:36:02;100316.25;;;11.77;100.00
29941;BME280;16801;53.562;10.038;2023-11-19T11:39:32;100317.09;;;12.29;100.00
29941;BME280;16801;53.562;10.038;2023-11-19T11:42:53;100316.47;;;11.83;100.00
29941;BME280;16801;53.562;10.038;2023-11-19T11:50:13;100328.25;;;12.00;100.00
29941;BME280;16801;53.562;10.038;2023-11-19T11:53:38;100327.97;;;11.85;100.00
29941;BME280;16801;53.562;10.038;2023-11-19T11:57:16;100323.88;;;11.99;100.00
29941;BME280;16801;53.562;10.038;2023-11-19T12:00:39;100316.44;;;12.01;100.00
29941;BME280;16801;53.562;10.038;2023-11-19T12:04:01;100307.88;;;12.06;100.00
29941;BME280;16801;53.562;10.038;2023-11-19T12:07:24;100310.25;;;12.09;100.00
29941;BME280;16801;53.562;10.038;2023-11-19T12:10:47;100313.31;;;12.14;100.00
29941;BME280;16801;53.562;10.038;2023-11-19T12:14:08;100303.19;;;12.16;100.00
29941;BME280;16801;53.562;10.038;2023-11-19T12:17:43;100304.75;;;12.18;100.00
29941;BME280;16801;53.562;10.038;2023-11-19T12:21:09;100305.66;;;12.35;100.00
29941;BME280;16801;53.562;10.038;2023-11-19T12:24:34;100308.13;;;12.20;100.00
29941;BME280;16801;53.562;10.038;2023-11-19T12:27:55;100306.47;;;12.01;100.00
29941;BME280;16801;53.562;10.038;2023-11-19T12:31:16;100308.22;;;11.85;100.00
29941;BME280;16801;53.562;10.038;2023-11-19T12:34:37;100306.16;;;11.79;100.00
29941;BME280;16801;53.562;10.038;2023-11-19T12:37:58;100309.47;;;11.73;100.00
29941;BME280;16801;53.562;10.038;2023-11-19T12:41:20;100307.63;;;11.73;100.00
29941;BME280;16801;53.562;10.038;2023-11-19T12:44:54;100315.44;;;11.76;100.00
29941;BME280;16801;53.562;10.038;2023-11-19T12:48:15;100311.25;;;11.82;100.00
29941;BME280;16801;53.562;10.038;2023-11-19T12:51:37;100309.03;;;12.03;100.00
29941;BME280;16801;53.562;10.038;2023-11-19T12:54:58;100311.41;;;12.06;100.00
29941;BME280;16801;53.562;10.038;2023-11-19T12:58:30;100308.31;;;11.93;100.00
29941;BME280;16801;53.562;10.038;2023-11-19T13:01:55;100308.44;;;11.91;100.00
29941;BME280;16801;53.562;10.038;2023-11-19T13:05:23;100294.44;;;12.22;100.00
29941;BME280;16801;53.562;10.038;2023-11-19T13:08:47;100303.94;;;12.26;100.00
29941;BME280;16801;53.562;10.038;2023-11-19T13:12:14;100305.69;;;12.09;100.00
29941;BME280;16801;53.562;10.038;2023-11-19T13:15:36;100300.06;;;12.02;100.00
29941;BME280;16801;53.562;10.038;2023-11-19T13:18:58;100294.50;;;12.04;100.00
29941;BME280;16801;53.562;10.038;2023-11-19T13:22:19;100299.78;;;12.06;100.00
29941;BME280;16801;53.562;10.038;2023-11-19T13:25:40;100297.41;;;12.11;100.00
29941;BME280;16801;53.562;10.038;2023-11-19T13:29:01;100298.09;;;12.13;100.00
29941;BME280;16801;53.562;10.038;2023-11-19T13:32:23;100288.41;;;12.02;100.00
29941;BME280;16801;53.562;10.038;2023-11-19T13:35:50;100285.66;;;11.94;100.00
29941;BME280;16801;53.562;10.038;2023-11-19T13:39:10;100288.38;;;11.94;100.00
29941;BME280;16801;53.562;10.038;2023-11-19T13:42:31;100279.91;;;12.23;100.00
29941;BME280;16801;53.562;10.038;2023-11-19T13:45:52;100278.03;;;12.15;100.00
29941;BME280;16801;53.562;10.038;2023-11-19T13:49:15;100279.88;;;12.15;100.00
29941;BME280;16801;53.562;10.038;2023-11-19T13:52:36;100290.25;;;12.01;100.00
29941;BME280;16801;53.562;10.038;2023-11-19T13:55:58;100292.28;;;11.99;100.00
29941;BME280;16801;53.562;10.038;2023-11-19T13:59:19;100268.50;;;12.03;100.00
29941;BME280;16801;53.562;10.038;2023-11-19T14:02:40;100279.56;;;12.18;100.00
29941;BME280;16801;53.562;10.038;2023-11-19T14:06:03;100281.03;;;12.12;100.00
29941;BME280;16801;53.562;10.038;2023-11-19T14:09:25;100280.53;;;12.09;100.00
29941;BME280;16801;53.562;10.038;2023-11-19T14:12:46;100288.47;;;12.10;100.00
29941;BME280;16801;53.562;10.038;2023-11-19T14:16:07;100288.31;;;12.12;100.00
29941;BME280;16801;53.562;10.038;2023-11-19T14:19:28;100279.16;;;12.04;100.00
29941;BME280;16801;53.562;10.038;2023-11-19T14:22:51;100292.13;;;12.01;100.00
29941;BME280;16801;53.562;10.038;2023-11-19T14:26:12;100300.72;;;11.96;100.00
29941;BME280;16801;53.562;10.038;2023-11-19T14:29:33;100299.31;;;11.67;100.00
29941;BME280;16801;53.562;10.038;2023-11-19T14:32:54;100307.56;;;11.48;100.00
29941;BME280;16801;53.562;10.038;2023-11-19T14:36:15;100310.88;;;11.42;100.00
29941;BME280;16801;53.562;10.038;2023-11-19T14:39:37;100306.44;;;11.33;100.00
29941;BME280;16801;53.562;10.038;2023-11-19T14:42:58;100310.97;;;11.32;100.00
29941;BME280;16801;53.562;10.038;2023-11-19T14:46:19;100302.94;;;11.22;100.00
29941;BME280;16801;53.562;10.038;2023-11-19T14:49:39;100311.59;;;11.26;100.00
29941;BME280;16801;53.562;10.038;2023-11-19T14:53:00;100308.75;;;11.27;100.00
29941;BME280;16801;53.562;10.038;2023-11-19T14:56:23;100299.50;;;11.30;100.00
29941;BME280;16801;53.562;10.038;2023-11-19T14:59:43;100296.25;;;11.26;100.00
29941;BME280;16801;53.562;10.038;2023-11-19T15:03:05;100310.91;;;11.24;100.00
29941;BME280;16801;53.562;10.038;2023-11-19T15:06:28;100328.09;;;11.23;100.00
29941;BME280;16801;53.562;10.038;2023-11-19T15:09:50;100352.22;;;11.24;100.00
29941;BME280;16801;53.562;10.038;2023-11-19T15:13:15;100337.00;;;10.88;100.00
29941;BME280;16801;53.562;10.038;2023-11-19T15:16:35;100341.78;;;10.67;100.00
29941;BME280;16801;53.562;10.038;2023-11-19T15:19:57;100335.09;;;10.44;100.00
29941;BME280;16801;53.562;10.038;2023-11-19T15:23:18;100339.09;;;10.40;100.00
29941;BME280;16801;53.562;10.038;2023-11-19T15:26:39;100336.66;;;10.47;100.00
29941;BME280;16801;53.562;10.038;2023-11-19T15:30:02;100341.13;;;10.56;100.00
29941;BME280;16801;53.562;10.038;2023-11-19T15:33:24;100335.47;;;10.59;100.00
29941;BME280;16801;53.562;10.038;2023-11-19T15:36:44;100339.53;;;10.63;100.00
29941;BME280;16801;53.562;10.038;2023-11-19T15:40:07;100343.03;;;10.73;100.00
29941;BME280;16801;53.562;10.038;2023-11-19T15:43:29;100347.97;;;10.77;100.00
29941;BME280;16801;53.562;10.038;2023-11-19T15:46:51;100346.59;;;10.73;100.00
29941;BME280;16801;53.562;10.038;2023-11-19T15:50:13;100345.34;;;10.68;100.00
29941;BME280;16801;53.562;10.038;2023-11-19T15:53:34;100340.91;;;10.76;100.00
29941;BME280;16801;53.562;10.038;2023-11-19T15:56:55;100352.78;;;10.83;100.00
29941;BME280;16801;53.562;10.038;2023-11-19T16:00:16;100351.63;;;10.86;100.00
29941;BME280;16801;53.562;10.038;2023-11-19T16:03:41;100355.56;;;10.91;100.00
29941;BME280;16801;53.562;10.038;2023-11-19T16:07:02;100353.88;;;10.90;100.00
29941;BME280;16801;53.562;10.038;2023-11-19T16:10:25;100349.63;;;10.88;100.00
29941;BME280;16801;53.562;10.038;2023-11-19T16:13:50;100366.78;;;10.87;100.00
29941;BME280;16801;53.562;10.038;2023-11-19T16:17:10;100360.16;;;10.81;100.00
29941;BME280;16801;53.562;10.038;2023-11-19T16:20:34;100358.06;;;10.75;100.00
29941;BME280;16801;53.562;10.038;2023-11-19T16:23:55;100361.03;;;10.72;100.00
29941;BME280;16801;53.562;10.038;2023-11-19T16:27:16;100363.63;;;10.74;100.00
29941;BME280;16801;53.562;10.038;2023-11-19T16:30:37;100370.41;;;10.78;100.00
29941;BME280;16801;53.562;10.038;2023-11-19T16:33:58;100378.50;;;10.78;100.00
29941;BME280;16801;53.562;10.038;2023-11-19T16:37:21;100378.66;;;10.76;100.00
29941;BME280;16801;53.562;10.038;2023-11-19T16:40:42;100382.34;;;10.75;100.00
29941;BME280;16801;53.562;10.038;2023-11-19T16:44:04;100379.19;;;10.80;100.00
29941;BME280;16801;53.562;10.038;2023-11-19T16:47:25;100382.06;;;10.78;100.00
29941;BME280;16801;53.562;10.038;2023-11-19T16:50:46;100385.72;;;10.77;100.00
29941;BME280;16801;53.562;10.038;2023-11-19T16:54:10;100386.31;;;10.71;100.00
29941;BME280;16801;53.562;10.038;2023-11-19T16:57:32;100384.78;;;10.69;100.00
29941;BME280;16801;53.562;10.038;2023-11-19T17:00:54;100382.22;;;10.67;100.00
29941;BME280;16801;53.562;10.038;2023-11-19T17:04:15;100385.22;;;10.64;100.00
29941;BME280;16801;53.562;10.038;2023-11-19T17:07:36;100392.31;;;10.65;100.00
29941;BME280;16801;53.562;10.038;2023-11-19T17:11:00;100383.28;;;10.57;100.00
29941;BME280;16801;53.562;10.038;2023-11-19T17:14:21;100386.41;;;10.52;100.00
29941;BME280;16801;53.562;10.038;2023-11-19T17:17:42;100384.16;;;10.48;100.00